createdAt,value
2022-12-13T00:00:14.056Z,99.84
2022-12-13T00:01:12.977Z,99.84
2022-12-13T00:02:13.066Z,99.84
2022-12-13T00:03:12.954Z,99.84
2022-12-13T00:04:13.253Z,99.73
2022-12-13T00:05:13.353Z,99.73
2022-12-13T00:06:13.070Z,99.63
2022-12-13T00:07:12.918Z,99.63
2022-12-13T00:08:12.938Z,99.52
2022-12-13T00:09:12.894Z,99.52
2022-12-13T00:10:12.898Z,99.63
2022-12-13T00:11:12.881Z,99.52
2022-12-13T00:12:12.883Z,99.41
2022-12-13T00:13:12.853Z,99.52
2022-12-13T00:14:12.963Z,99.52
2022-12-13T00:15:13.267Z,99.52
2022-12-13T00:16:12.931Z,99.63
2022-12-13T00:17:12.814Z,99.63
2022-12-13T00:18:12.837Z,99.63
2022-12-13T00:19:12.825Z,99.63
2022-12-13T00:20:12.811Z,99.63
2022-12-13T00:21:12.769Z,99.52
2022-12-13T00:22:12.777Z,99.52
2022-12-13T00:23:12.745Z,99.63
2022-12-13T00:24:12.767Z,99.63
2022-12-13T00:25:13.202Z,99.63
2022-12-13T00:26:12.755Z,99.52
2022-12-13T00:27:12.694Z,99.52
2022-12-13T00:28:12.745Z,99.41
2022-12-13T00:29:12.692Z,99.41
2022-12-13T00:30:12.702Z,99.52
2022-12-13T00:31:52.957Z,99.41
2022-12-13T00:32:13.675Z,99.41
2022-12-13T00:33:12.635Z,99.41
2022-12-13T00:34:12.655Z,99.46
2022-12-13T00:35:12.883Z,99.35
2022-12-13T00:36:12.602Z,99.25
2022-12-13T00:37:12.609Z,99.25
2022-12-13T00:38:12.609Z,99.35
2022-12-13T00:39:12.574Z,99.25
2022-12-13T00:40:12.694Z,99.46
2022-12-13T00:41:12.554Z,99.35
2022-12-13T00:42:12.555Z,99.35
2022-12-13T00:43:12.525Z,99.35
2022-12-13T00:44:12.598Z,99.35
2022-12-13T00:45:12.803Z,99.35
2022-12-13T00:46:12.639Z,99.25
2022-12-13T00:47:12.491Z,99.19
2022-12-13T00:48:12.526Z,99.08
2022-12-13T00:49:12.476Z,99.30
2022-12-13T00:50:12.564Z,99.15
2022-12-13T00:51:12.442Z,99.35
2022-12-13T00:52:12.452Z,99.30
2022-12-13T00:53:12.431Z,99.08
2022-12-13T00:54:12.432Z,99.08
2022-12-13T00:55:12.705Z,99.19
2022-12-13T00:56:12.481Z,99.08
2022-12-13T00:57:12.393Z,99.19
2022-12-13T00:58:12.464Z,99.30
2022-12-13T00:59:12.363Z,99.30
2022-12-13T01:00:12.401Z,99.30
2022-12-13T01:01:12.411Z,99.30
2022-12-13T01:02:12.401Z,99.51
2022-12-13T01:03:12.356Z,99.51
2022-12-13T01:04:12.334Z,99.40
2022-12-13T01:05:12.578Z,99.51
2022-12-13T01:06:15.294Z,99.51
2022-12-13T01:07:12.296Z,99.51
2022-12-13T01:08:12.310Z,99.51
2022-12-13T01:09:12.264Z,99.40
2022-12-13T01:10:12.271Z,99.51
2022-12-13T01:11:12.237Z,99.61
2022-12-13T01:12:12.294Z,99.61
2022-12-13T01:13:12.218Z,99.51
2022-12-13T01:14:12.342Z,99.51
2022-12-13T01:15:12.381Z,99.51
2022-12-13T01:16:12.327Z,99.72
2022-12-13T01:17:12.242Z,99.72
2022-12-13T01:18:12.166Z,99.82
2022-12-13T01:19:12.163Z,99.82
2022-12-13T01:20:12.188Z,99.72
2022-12-13T01:21:12.141Z,99.72
2022-12-13T01:22:12.131Z,99.82
2022-12-13T01:23:12.122Z,99.72
2022-12-13T01:24:12.335Z,99.72
2022-12-13T01:25:12.359Z,99.82
2022-12-13T01:26:12.093Z,99.72
2022-12-13T01:27:12.084Z,99.82
2022-12-13T01:28:12.107Z,99.82
2022-12-13T01:29:12.076Z,99.82
2022-12-13T01:30:12.096Z,99.82
2022-12-13T01:31:12.067Z,99.82
2022-12-13T01:32:12.113Z,99.82
2022-12-13T01:33:13.940Z,99.82
2022-12-13T01:34:12.163Z,99.82
2022-12-13T01:35:12.536Z,99.82
2022-12-13T01:36:11.997Z,99.82
2022-12-13T01:37:11.983Z,99.72
2022-12-13T01:38:15.665Z,99.61
2022-12-13T01:39:15.256Z,99.72
2022-12-13T01:40:15.854Z,99.61
2022-12-13T01:41:17.676Z,99.72
2022-12-13T01:42:12.994Z,99.61
2022-12-13T01:43:14.274Z,99.51
2022-12-13T01:44:11.933Z,99.51
2022-12-13T01:45:12.068Z,99.40
2022-12-13T01:46:12.129Z,99.40
2022-12-13T01:47:11.860Z,99.40
2022-12-13T01:48:11.932Z,99.30
2022-12-13T01:49:20.525Z,99.19
2022-12-13T01:50:12.913Z,99.19
2022-12-13T01:51:11.821Z,99.19
2022-12-13T01:52:11.930Z,99.19
2022-12-13T01:53:11.802Z,99.19
2022-12-13T01:54:11.811Z,98.98
2022-12-13T01:55:12.783Z,98.98
2022-12-13T01:56:11.783Z,98.98
2022-12-13T01:57:11.753Z,98.98
2022-12-13T01:58:11.790Z,99.08
2022-12-13T01:59:11.763Z,98.98
2022-12-13T02:00:11.774Z,99.08
2022-12-13T02:01:11.737Z,99.08
2022-12-13T02:02:11.752Z,98.98
2022-12-13T02:03:21.605Z,99.08
2022-12-13T02:04:12.687Z,98.87
2022-12-13T02:05:11.848Z,98.87
2022-12-13T02:06:11.704Z,98.77
2022-12-13T02:07:11.651Z,98.77
2022-12-13T02:08:11.719Z,98.66
2022-12-13T02:09:11.636Z,98.66
2022-12-13T02:10:11.692Z,98.77
2022-12-13T02:11:11.654Z,98.66
2022-12-13T02:12:11.692Z,98.45
2022-12-13T02:13:11.600Z,98.60
2022-12-13T02:14:11.600Z,98.71
2022-12-13T02:15:11.580Z,98.60
2022-12-13T02:16:11.698Z,98.71
2022-12-13T02:17:11.583Z,98.49
2022-12-13T02:18:11.542Z,98.49
2022-12-13T02:19:11.555Z,98.49
2022-12-13T02:20:11.522Z,98.49
2022-12-13T02:21:11.502Z,98.49
2022-12-13T02:22:11.513Z,98.49
2022-12-13T02:23:11.487Z,98.49
2022-12-13T02:24:11.493Z,98.49
2022-12-13T02:25:11.688Z,98.49
2022-12-13T02:26:11.510Z,98.39
2022-12-13T02:27:11.485Z,98.39
2022-12-13T02:28:31.205Z,98.49
2022-12-13T02:29:12.462Z,98.49
2022-12-13T02:30:12.442Z,98.49
2022-12-13T02:31:11.452Z,98.49
2022-12-13T02:32:11.385Z,98.39
2022-12-13T02:33:11.383Z,98.49
2022-12-13T02:34:11.446Z,98.49
2022-12-13T02:35:11.380Z,98.65
2022-12-13T02:36:11.370Z,98.71
2022-12-13T02:37:17.603Z,98.65
2022-12-13T02:38:12.339Z,98.71
2022-12-13T02:39:11.344Z,98.75
2022-12-13T02:40:11.353Z,98.81
2022-12-13T02:41:11.307Z,98.65
2022-12-13T02:42:21.521Z,98.54
2022-12-13T02:43:12.302Z,98.65
2022-12-13T02:44:21.966Z,98.65
2022-12-13T02:45:17.197Z,98.75
2022-12-13T02:46:12.287Z,98.75
2022-12-13T02:47:12.787Z,98.75
2022-12-13T02:48:12.240Z,98.75
2022-12-13T02:49:11.209Z,98.65
2022-12-13T02:50:11.226Z,98.75
2022-12-13T02:51:11.208Z,98.75
2022-12-13T02:52:11.201Z,98.75
2022-12-13T02:53:11.159Z,98.54
2022-12-13T02:54:11.263Z,98.54
2022-12-13T02:55:11.150Z,98.54
2022-12-13T02:56:11.183Z,98.54
2022-12-13T02:57:11.120Z,98.54
2022-12-13T02:58:11.147Z,98.54
2022-12-13T02:59:11.140Z,98.54
2022-12-13T03:00:11.205Z,98.54
2022-12-13T03:01:27.593Z,98.43
2022-12-13T03:02:12.192Z,98.43
2022-12-13T03:03:11.145Z,98.54
2022-12-13T03:04:11.060Z,98.54
2022-12-13T03:05:11.050Z,98.54
2022-12-13T03:06:11.099Z,98.54
2022-12-13T03:07:11.102Z,98.65
2022-12-13T03:08:11.115Z,98.43
2022-12-13T03:09:10.992Z,98.54
2022-12-13T03:10:11.020Z,98.54
2022-12-13T03:11:11.009Z,98.65
2022-12-13T03:12:11.046Z,98.65
2022-12-13T03:13:10.979Z,98.65
2022-12-13T03:14:11.141Z,98.65
2022-12-13T03:15:10.957Z,98.54
2022-12-13T03:16:11.323Z,98.54
2022-12-13T03:17:10.920Z,98.48
2022-12-13T03:18:10.974Z,98.48
2022-12-13T03:19:10.914Z,98.48
2022-12-13T03:20:22.455Z,98.37
2022-12-13T03:21:11.880Z,98.48
2022-12-13T03:22:10.937Z,98.37
2022-12-13T03:23:10.861Z,98.37
2022-12-13T03:24:10.883Z,98.37
2022-12-13T03:25:10.836Z,98.33
2022-12-13T03:26:10.864Z,98.27
2022-12-13T03:27:10.819Z,98.16
2022-12-13T03:28:10.914Z,98.06
2022-12-13T03:29:10.790Z,97.85
2022-12-13T03:30:10.840Z,97.95
2022-12-13T03:31:10.869Z,97.95
2022-12-13T03:32:10.780Z,98.06
2022-12-13T03:33:10.802Z,97.91
2022-12-13T03:34:10.758Z,98.01
2022-12-13T03:35:21.864Z,98.01
2022-12-13T03:36:11.836Z,98.12
2022-12-13T03:37:10.707Z,98.01
2022-12-13T03:38:10.769Z,98.01
2022-12-13T03:39:10.725Z,98.22
2022-12-13T03:40:10.696Z,98.12
2022-12-13T03:41:10.770Z,98.12
2022-12-13T03:42:10.722Z,98.01
2022-12-13T03:43:10.652Z,98.12
2022-12-13T03:44:10.638Z,98.12
2022-12-13T03:45:10.630Z,98.01
2022-12-13T03:46:10.724Z,97.91
2022-12-13T03:47:10.590Z,98.01
2022-12-13T03:48:10.653Z,97.91
2022-12-13T03:49:15.336Z,98.01
2022-12-13T03:50:26.393Z,98.01
2022-12-13T03:51:11.580Z,98.12
2022-12-13T03:52:10.617Z,98.12
2022-12-13T03:53:32.221Z,98.12
2022-12-13T03:54:11.521Z,98.12
2022-12-13T03:55:10.506Z,98.22
2022-12-13T03:56:10.550Z,98.12
2022-12-13T03:57:10.498Z,98.12
2022-12-13T03:58:10.610Z,98.12
2022-12-13T03:59:10.472Z,98.12
2022-12-13T04:00:10.472Z,98.01
2022-12-13T04:01:10.478Z,98.01
2022-12-13T04:02:10.565Z,98.01
2022-12-13T04:03:10.512Z,98.01
2022-12-13T04:04:10.470Z,98.01
2022-12-13T04:05:10.399Z,98.12
2022-12-13T04:06:10.429Z,98.12
2022-12-13T04:07:22.219Z,98.12
2022-12-13T04:08:21.604Z,98.12
2022-12-13T04:09:11.364Z,98.12
2022-12-13T04:10:26.415Z,98.27
2022-12-13T04:11:11.352Z,98.27
2022-12-13T04:12:10.332Z,98.27
2022-12-13T04:13:10.338Z,98.27
2022-12-13T04:14:10.369Z,98.16
2022-12-13T04:15:10.319Z,98.16
2022-12-13T04:16:10.389Z,98.16
2022-12-13T04:17:10.278Z,98.16
2022-12-13T04:18:10.318Z,98.27
2022-12-13T04:19:10.248Z,98.27
2022-12-13T04:20:10.330Z,98.27
2022-12-13T04:21:10.244Z,98.37
2022-12-13T04:22:10.252Z,98.48
2022-12-13T04:23:10.742Z,98.48
2022-12-13T04:24:10.260Z,98.58
2022-12-13T04:25:10.217Z,98.58
2022-12-13T04:26:10.384Z,98.69
2022-12-13T04:27:10.180Z,98.69
2022-12-13T04:28:10.189Z,98.69
2022-12-13T04:29:10.152Z,98.69
2022-12-13T04:30:10.224Z,98.69
2022-12-13T04:31:10.269Z,98.69
2022-12-13T04:32:26.855Z,98.69
2022-12-13T04:33:11.110Z,98.69
2022-12-13T04:34:10.097Z,98.69
2022-12-13T04:35:10.112Z,98.80
2022-12-13T04:36:10.252Z,98.80
2022-12-13T04:37:10.080Z,98.80
2022-12-13T04:38:10.059Z,98.90
2022-12-13T04:39:22.225Z,98.90
2022-12-13T04:40:11.100Z,98.96
2022-12-13T04:41:10.038Z,98.96
2022-12-13T04:42:10.087Z,98.96
2022-12-13T04:43:10.011Z,98.96
2022-12-13T04:44:28.839Z,98.96
2022-12-13T04:45:10.976Z,98.96
2022-12-13T04:46:10.092Z,98.96
2022-12-13T04:47:09.966Z,98.96
2022-12-13T04:48:10.037Z,98.96
2022-12-13T04:49:09.958Z,98.96
2022-12-13T04:50:09.968Z,98.96
2022-12-13T04:51:09.925Z,98.96
2022-12-13T04:52:09.916Z,98.86
2022-12-13T04:53:09.917Z,98.86
2022-12-13T04:54:23.972Z,98.96
2022-12-13T04:55:10.874Z,98.96
2022-12-13T04:56:09.943Z,98.86
2022-12-13T04:57:09.945Z,98.96
2022-12-13T04:58:09.858Z,98.86
2022-12-13T04:59:09.856Z,98.75
2022-12-13T05:00:09.898Z,98.86
2022-12-13T05:01:09.882Z,98.86
2022-12-13T05:02:10.067Z,98.86
2022-12-13T05:03:09.793Z,98.96
2022-12-13T05:04:09.795Z,98.96
2022-12-13T05:05:09.767Z,98.86
2022-12-13T05:06:26.817Z,98.86
2022-12-13T05:07:10.836Z,98.86
2022-12-13T05:08:09.780Z,98.96
2022-12-13T05:09:11.141Z,98.96
2022-12-13T05:10:09.965Z,98.96
2022-12-13T05:11:09.699Z,99.07
2022-12-13T05:12:21.867Z,99.18
2022-12-13T05:13:10.706Z,99.24
2022-12-13T05:14:10.037Z,99.13
2022-12-13T05:15:09.684Z,99.24
2022-12-13T05:16:09.740Z,99.34
2022-12-13T05:17:09.656Z,99.34
2022-12-13T05:18:10.992Z,99.24
2022-12-13T05:19:09.734Z,99.24
2022-12-13T05:20:09.704Z,99.24
2022-12-13T05:21:09.595Z,99.02
2022-12-13T05:22:12.494Z,99.02
2022-12-13T05:23:10.584Z,99.02
2022-12-13T05:24:09.650Z,98.92
2022-12-13T05:25:09.566Z,98.81
2022-12-13T05:26:09.587Z,98.71
2022-12-13T05:27:24.835Z,98.71
2022-12-13T05:28:27.490Z,98.71
2022-12-13T05:29:10.505Z,98.71
2022-12-13T05:30:09.564Z,98.60
2022-12-13T05:31:23.201Z,98.60
2022-12-13T05:32:10.615Z,98.49
2022-12-13T05:33:09.475Z,98.39
2022-12-13T05:34:09.522Z,98.49
2022-12-13T05:35:09.446Z,98.39
2022-12-13T05:36:09.502Z,98.28
2022-12-13T05:37:09.466Z,98.35
2022-12-13T05:38:09.549Z,98.24
2022-12-13T05:39:28.155Z,98.07
2022-12-13T05:40:10.472Z,98.07
2022-12-13T05:41:09.405Z,97.97
2022-12-13T05:42:09.435Z,97.97
2022-12-13T05:43:21.203Z,97.86
2022-12-13T05:44:10.356Z,97.65
2022-12-13T05:45:09.342Z,97.55
2022-12-13T05:46:09.396Z,97.44
2022-12-13T05:47:09.344Z,97.23
2022-12-13T06:18:10.343Z,96.09
2022-12-13T06:19:10.243Z,96.20
2022-12-13T06:20:23.602Z,96.09
2022-12-13T06:21:11.240Z,96.20
2022-12-13T06:22:10.313Z,96.30
2022-12-13T06:23:10.210Z,96.30
2022-12-13T06:24:10.271Z,96.41
2022-12-13T06:25:30.995Z,96.30
2022-12-13T06:26:11.765Z,96.41
2022-12-13T06:27:10.190Z,96.62
2022-12-13T06:28:10.202Z,96.73
2022-12-13T06:29:10.139Z,96.73
2022-12-13T06:30:10.141Z,96.73
2022-12-13T06:31:10.171Z,96.83
2022-12-13T06:32:10.126Z,96.94
2022-12-13T06:33:10.102Z,96.83
2022-12-13T06:34:14.203Z,96.83
2022-12-13T06:35:28.007Z,96.94
2022-12-13T06:36:11.204Z,96.94
2022-12-13T06:37:10.080Z,96.94
2022-12-13T06:38:11.939Z,97.09
2022-12-13T06:39:10.041Z,97.05
2022-12-13T06:40:10.061Z,97.19
2022-12-13T06:41:10.022Z,97.36
2022-12-13T06:42:10.078Z,97.36
2022-12-13T06:43:10.008Z,97.41
2022-12-13T06:44:10.052Z,97.47
2022-12-13T06:45:09.985Z,97.47
2022-12-13T06:46:10.096Z,97.67
2022-12-13T06:47:12.219Z,97.67
2022-12-13T06:48:09.976Z,97.67
2022-12-13T06:49:09.977Z,97.72
2022-12-13T06:50:10.010Z,97.61
2022-12-13T06:51:10.065Z,97.72
2022-12-13T06:52:10.024Z,97.83
2022-12-13T06:53:09.911Z,97.78
2022-12-13T06:54:10.030Z,97.89
2022-12-13T06:55:09.877Z,97.93
2022-12-13T06:56:09.878Z,97.83
2022-12-13T06:57:09.891Z,97.93
2022-12-13T06:58:09.887Z,97.93
2022-12-13T06:59:09.846Z,97.93
2022-12-13T07:00:09.833Z,97.83
2022-12-13T07:01:14.877Z,97.72
2022-12-13T07:02:24.398Z,97.83
2022-12-13T07:03:10.835Z,97.89
2022-12-13T07:04:29.901Z,97.89
2022-12-13T07:05:10.769Z,97.78
2022-12-13T07:06:09.797Z,97.89
2022-12-13T07:07:09.751Z,97.93
2022-12-13T07:08:09.837Z,97.99
2022-12-13T07:09:09.728Z,98.10
2022-12-13T07:10:12.728Z,98.21
2022-12-13T07:11:10.720Z,98.10
2022-12-13T07:12:09.785Z,98.21
2022-12-13T07:13:09.751Z,98.21
2022-12-13T07:14:09.690Z,98.31
2022-12-13T07:15:09.668Z,98.42
2022-12-13T07:16:09.783Z,98.42
2022-12-13T07:17:09.649Z,98.31
2022-12-13T07:18:09.666Z,98.31
2022-12-13T07:19:23.022Z,98.31
2022-12-13T07:20:10.618Z,98.31
2022-12-13T07:21:09.607Z,98.31
2022-12-13T07:22:10.658Z,98.31
2022-12-13T07:23:09.607Z,98.31
2022-12-13T07:24:09.602Z,98.31
2022-12-13T07:25:28.417Z,98.21
2022-12-13T07:26:10.631Z,98.21
2022-12-13T07:27:09.547Z,98.21
2022-12-13T07:28:09.595Z,98.31
2022-12-13T07:29:09.560Z,98.21
2022-12-13T07:30:09.608Z,98.21
2022-12-13T07:31:09.547Z,98.21
2022-12-13T07:32:09.629Z,98.21
2022-12-13T07:33:09.518Z,98.21
2022-12-13T07:34:14.149Z,98.10
2022-12-13T07:35:10.461Z,97.99
2022-12-13T07:36:09.458Z,97.99
2022-12-13T07:37:09.438Z,97.89
2022-12-13T07:38:10.589Z,97.99
2022-12-13T07:39:09.437Z,97.99
2022-12-13T07:40:09.477Z,97.99
2022-12-13T07:41:09.463Z,98.10
2022-12-13T07:42:09.560Z,98.10
2022-12-13T07:43:09.408Z,98.21
2022-12-13T07:44:09.387Z,98.21
2022-12-13T07:45:10.612Z,98.10
2022-12-13T07:46:09.469Z,97.99
2022-12-13T07:47:09.339Z,97.99
2022-12-13T07:48:09.907Z,98.10
2022-12-13T07:49:09.318Z,97.99
2022-12-13T07:50:23.973Z,98.21
2022-12-13T07:51:10.319Z,98.21
2022-12-13T07:52:09.354Z,98.10
2022-12-13T07:53:09.289Z,98.21
2022-12-13T07:54:09.383Z,98.21
2022-12-13T07:55:10.259Z,98.10
2022-12-13T07:56:09.247Z,98.10
2022-12-13T07:57:09.255Z,98.21
2022-12-13T07:58:09.285Z,98.10
2022-12-13T07:59:09.219Z,98.10
2022-12-13T08:00:09.251Z,98.21
2022-12-13T08:01:09.186Z,98.21
2022-12-13T08:02:09.323Z,98.21
2022-12-13T08:03:18.351Z,98.10
2022-12-13T08:05:41.406Z,98.10
2022-12-13T08:06:41.328Z,98.10
2022-12-13T08:07:41.329Z,98.10
2022-12-13T08:08:41.402Z,98.10
2022-12-13T08:09:41.298Z,98.21
2022-12-13T08:10:41.288Z,98.10
2022-12-13T08:11:41.360Z,98.31
2022-12-13T08:12:41.265Z,98.27
2022-12-13T08:13:41.278Z,98.27
2022-12-13T08:14:41.245Z,98.16
2022-12-13T08:15:41.304Z,98.06
2022-12-13T08:16:41.306Z,98.16
2022-12-13T08:17:41.256Z,98.06
2022-12-13T08:18:41.228Z,98.16
2022-12-13T08:19:41.196Z,98.16
2022-12-13T08:20:41.187Z,97.95
2022-12-13T08:22:01.328Z,97.95
2022-12-13T08:22:42.167Z,98.06
2022-12-13T08:23:42.225Z,98.16
2022-12-13T08:24:41.173Z,98.06
2022-12-13T08:25:41.152Z,98.06
2022-12-13T08:26:42.181Z,97.95
2022-12-13T08:27:42.921Z,97.74
2022-12-13T08:28:41.118Z,97.74
2022-12-13T08:29:41.113Z,97.74
2022-12-13T08:30:41.087Z,97.85
2022-12-13T08:31:41.139Z,97.74
2022-12-13T08:32:41.090Z,97.74
2022-12-13T08:33:41.134Z,97.63
2022-12-13T08:34:41.056Z,97.63
2022-12-13T08:35:41.036Z,97.59
2022-12-13T08:36:41.028Z,97.63
2022-12-13T08:37:41.524Z,97.59
2022-12-13T08:38:41.028Z,97.59
2022-12-13T08:39:41.003Z,97.59
2022-12-13T08:40:41.028Z,97.59
2022-12-13T08:41:40.995Z,97.59
2022-12-13T08:42:41.024Z,97.49
2022-12-13T08:43:41.069Z,97.59
2022-12-13T08:44:40.935Z,97.69
2022-12-13T08:45:40.948Z,97.69
2022-12-13T08:46:41.031Z,97.69
2022-12-13T08:47:42.128Z,97.55
2022-12-13T08:48:44.401Z,97.65
2022-12-13T08:49:40.900Z,97.65
2022-12-13T08:50:40.919Z,97.55
2022-12-13T08:51:40.873Z,97.55
2022-12-13T08:52:42.564Z,97.55
2022-12-13T08:53:41.620Z,97.65
2022-12-13T08:54:40.918Z,97.65
2022-12-13T08:55:40.858Z,97.44
2022-12-13T08:56:43.606Z,97.33
2022-12-13T08:57:40.859Z,97.23
2022-12-13T08:58:40.856Z,97.33
2022-12-13T08:59:40.789Z,97.23
2022-12-13T09:00:40.903Z,97.19
2022-12-13T09:01:40.788Z,97.19
2022-12-13T09:02:40.846Z,96.97
2022-12-13T09:03:40.746Z,96.87
2022-12-13T09:04:40.782Z,96.77
2022-12-13T09:05:40.724Z,96.45
2022-12-13T09:06:40.725Z,96.34
2022-12-13T09:07:40.743Z,96.23
2022-12-13T09:08:40.846Z,96.13
2022-12-13T09:09:40.736Z,95.92
2022-12-13T09:11:10.696Z,95.87
2022-12-13T09:11:41.667Z,95.87
2022-12-13T09:12:41.617Z,95.67
2022-12-13T09:13:43.372Z,95.67
2022-12-13T09:14:45.353Z,95.45
2022-12-13T09:15:46.229Z,95.45
2022-12-13T09:16:40.695Z,95.35
2022-12-13T11:00:42.313Z,81.26
2022-12-13T11:01:42.297Z,81.88
2022-12-13T11:02:42.312Z,82.09
2022-12-13T11:03:42.259Z,82.30
2022-12-13T11:04:42.251Z,81.95
2022-12-13T11:05:42.265Z,81.46
2022-12-13T11:06:43.483Z,81.32
2022-12-13T11:07:42.225Z,81.22
2022-12-13T11:08:42.212Z,81.63
2022-12-13T11:09:42.191Z,82.06
2022-12-13T11:10:42.430Z,81.70
2022-12-13T11:11:42.177Z,81.49
2022-12-13T11:12:42.171Z,81.39
2022-12-13T11:13:42.164Z,80.87
2022-12-13T11:14:43.673Z,80.13
2022-12-13T11:15:42.144Z,80.35
2022-12-13T11:16:42.122Z,80.03
2022-12-13T11:17:42.210Z,78.56
2022-12-13T11:18:42.097Z,77.42
2022-12-13T11:19:42.132Z,77.52
2022-12-13T11:20:42.093Z,78.04
2022-12-13T11:21:42.066Z,78.67
2022-12-13T11:22:42.056Z,78.77
2022-12-13T11:23:42.057Z,79.16
2022-12-13T11:24:42.027Z,78.53
2022-12-13T11:25:42.035Z,77.80
2022-12-13T11:26:42.008Z,77.06
2022-12-13T11:27:41.997Z,76.96
2022-12-13T11:28:42.405Z,76.96
2022-12-13T11:29:42.796Z,77.20
2022-12-13T11:30:41.977Z,77.52
2022-12-13T11:31:42.041Z,76.79
2022-12-13T11:32:41.959Z,77.42
2022-12-13T11:33:48.147Z,77.62
2022-12-13T11:34:42.920Z,77.17
2022-12-13T11:35:41.927Z,76.86
2022-12-13T11:36:41.898Z,76.33
2022-12-13T11:37:41.897Z,76.86
2022-12-13T11:38:41.880Z,76.86
2022-12-13T11:39:41.870Z,76.86
2022-12-13T11:40:41.868Z,77.38
2022-12-13T11:41:41.859Z,76.86
2022-12-13T11:42:41.833Z,77.28
2022-12-13T11:43:41.830Z,77.76
2022-12-13T11:44:47.388Z,77.34
2022-12-13T11:45:42.869Z,76.93
2022-12-13T11:46:41.812Z,75.98
2022-12-13T11:47:41.793Z,76.44
2022-12-13T11:48:41.784Z,76.54
2022-12-13T11:49:41.774Z,76.75
2022-12-13T11:50:41.821Z,76.40
2022-12-13T11:51:41.747Z,75.36
2022-12-13T11:52:41.735Z,75.36
2022-12-13T11:53:41.727Z,74.94
2022-12-13T11:54:41.705Z,75.12
2022-12-13T11:55:41.703Z,75.43
2022-12-13T11:56:41.686Z,74.59
2022-12-13T11:57:41.681Z,74.91
2022-12-13T11:59:42.655Z,74.77
2022-12-13T12:00:41.762Z,73.93
2022-12-13T12:01:41.634Z,74.04
2022-12-13T12:02:41.676Z,73.34
2022-12-13T12:03:41.645Z,73.34
2022-12-13T12:04:41.606Z,73.30
2022-12-13T12:05:41.605Z,72.89
2022-12-13T12:06:41.577Z,73.48
2022-12-13T12:07:58.431Z,73.27
2022-12-13T12:08:42.551Z,72.33
2022-12-13T12:09:41.548Z,71.81
2022-12-13T12:10:47.362Z,71.29
2022-12-13T12:11:42.526Z,71.81
2022-12-13T12:12:41.516Z,72.58
2022-12-13T12:13:50.945Z,72.99
2022-12-13T12:14:42.487Z,72.16
2022-12-13T12:15:42.214Z,72.16
2022-12-13T12:16:41.470Z,72.05
2022-12-13T12:17:42.103Z,72.58
2022-12-13T12:18:41.441Z,72.68
2022-12-13T12:19:41.446Z,72.54
2022-12-13T12:20:41.489Z,72.23
2022-12-13T12:22:42.418Z,71.29
2022-12-13T12:23:46.322Z,72.23
2022-12-13T12:24:42.381Z,72.54
2022-12-13T12:25:42.538Z,72.85
2022-12-13T12:26:41.381Z,72.64
2022-12-13T12:27:41.351Z,71.70
2022-12-13T12:28:43.993Z,71.91
2022-12-13T12:29:41.332Z,71.91
2022-12-13T12:30:41.321Z,71.91
2022-12-13T12:31:50.928Z,72.33
2022-12-13T12:32:42.292Z,72.58
2022-12-13T12:33:41.287Z,72.05
2022-12-13T12:34:41.274Z,72.47
2022-12-13T12:35:46.137Z,72.61
2022-12-13T12:36:42.260Z,72.61
2022-12-13T12:37:41.396Z,73.75
2022-12-13T12:38:41.224Z,74.21
2022-12-13T12:39:41.216Z,74.63
2022-12-13T12:41:07.537Z,74.84
2022-12-13T12:41:45.483Z,74.63
2022-12-13T12:43:11.898Z,75.04
2022-12-13T12:43:42.175Z,75.67
2022-12-13T12:44:41.166Z,75.46
2022-12-13T12:45:56.259Z,75.57
2022-12-13T12:47:18.993Z,76.09
2022-12-13T12:48:38.598Z,76.12
2022-12-13T12:48:55.075Z,76.23
2022-12-13T12:49:42.119Z,76.44
2022-12-13T12:50:43.041Z,77.06
2022-12-13T12:51:41.118Z,76.79
2022-12-13T12:52:41.075Z,76.57
2022-12-13T12:53:41.078Z,77.31
2022-12-13T12:54:41.048Z,77.00
2022-12-13T12:55:41.049Z,77.10
2022-12-13T12:56:41.048Z,77.31
2022-12-13T12:57:41.140Z,77.31
2022-12-13T12:58:41.017Z,77.20
2022-12-13T12:59:41.014Z,77.20
2022-12-13T13:00:40.997Z,77.10
2022-12-13T13:01:43.368Z,77.52
2022-12-13T13:02:40.983Z,76.89
2022-12-13T13:03:41.003Z,76.26
2022-12-13T13:04:41.121Z,76.26
2022-12-13T13:05:40.948Z,76.47
2022-12-13T13:06:40.928Z,77.00
2022-12-13T13:07:40.920Z,77.52
2022-12-13T13:08:40.907Z,77.42
2022-12-13T13:09:40.908Z,77.20
2022-12-13T13:10:40.881Z,77.24
2022-12-13T13:11:43.356Z,77.87
2022-12-13T13:12:42.963Z,77.97
2022-12-13T13:13:45.962Z,78.08
2022-12-13T14:17:52.165Z,78.57
2022-12-13T14:18:52.107Z,78.15
2022-12-13T14:19:56.302Z,77.62
2022-12-13T14:20:52.105Z,77.52
2022-12-13T14:21:52.176Z,77.83
2022-12-13T14:22:52.093Z,78.25
2022-12-13T14:23:52.077Z,78.46
2022-12-13T14:24:52.057Z,78.15
2022-12-13T14:25:52.657Z,78.46
2022-12-13T14:26:52.059Z,79.09
2022-12-13T14:27:52.026Z,79.30
2022-12-13T14:28:51.999Z,79.09
2022-12-13T14:29:58.291Z,79.41
2022-12-13T14:30:57.320Z,79.72
2022-12-13T14:31:52.077Z,79.20
2022-12-13T14:32:51.965Z,78.57
2022-12-13T14:33:51.982Z,78.99
2022-12-13T14:34:51.947Z,79.30
2022-12-13T14:35:51.936Z,79.65
2022-12-13T14:36:51.930Z,79.86
2022-12-13T14:37:52.008Z,79.86
2022-12-13T14:38:51.900Z,79.55
2022-12-13T14:39:51.905Z,80.18
2022-12-13T14:40:51.888Z,80.28
2022-12-13T14:41:56.621Z,80.18
2022-12-13T14:42:52.848Z,80.60
2022-12-13T14:43:51.863Z,80.60
2022-12-13T14:44:51.858Z,80.07
2022-12-13T14:45:51.856Z,79.97
2022-12-13T14:46:53.179Z,79.86
2022-12-13T14:47:51.809Z,80.38
2022-12-13T14:48:51.787Z,80.60
2022-12-13T14:49:51.787Z,79.34
2022-12-13T14:50:51.778Z,79.55
2022-12-13T14:51:51.797Z,80.38
2022-12-13T14:52:51.860Z,80.49
2022-12-13T14:53:51.794Z,80.18
2022-12-13T14:54:51.727Z,79.97
2022-12-13T14:55:52.759Z,80.28
2022-12-13T14:56:51.719Z,79.97
2022-12-13T14:57:51.815Z,80.18
2022-12-13T14:58:51.792Z,78.92
2022-12-13T14:59:51.699Z,79.13
2022-12-13T15:00:51.806Z,79.23
2022-12-13T15:01:51.666Z,79.02
2022-12-13T15:02:51.637Z,79.34
2022-12-13T15:03:51.718Z,78.71
2022-12-13T15:04:51.609Z,78.50
2022-12-13T15:05:51.612Z,77.87
2022-12-13T15:06:51.787Z,78.29
2022-12-13T15:07:51.579Z,78.60
2022-12-13T15:08:51.589Z,78.39
2022-12-13T15:09:51.557Z,78.60
2022-12-13T15:10:51.550Z,79.13
2022-12-13T15:11:51.558Z,79.23
2022-12-13T15:12:51.539Z,79.44
2022-12-13T15:13:51.540Z,79.23
2022-12-13T15:14:51.502Z,78.85
2022-12-13T15:15:51.549Z,79.27
2022-12-13T15:16:51.576Z,78.96
2022-12-13T15:17:51.727Z,79.27
2022-12-13T15:18:51.528Z,79.27
2022-12-13T15:19:51.544Z,79.06
2022-12-13T15:20:51.520Z,79.27
2022-12-13T15:21:51.547Z,79.27
2022-12-13T15:22:51.419Z,79.58
2022-12-13T15:23:51.431Z,79.90
2022-12-13T15:24:51.411Z,79.69
2022-12-13T17:30:46.388Z,81.27
2022-12-13T17:31:47.323Z,81.37
2022-12-13T17:32:46.321Z,81.58
2022-12-13T17:33:46.305Z,81.58
2022-12-13T17:34:46.298Z,81.48
2022-12-13T17:35:47.349Z,81.48
2022-12-13T17:36:46.267Z,81.90
2022-12-13T17:37:46.273Z,82.10
2022-12-13T17:38:46.244Z,82.00
2022-12-13T17:39:46.243Z,82.00
2022-12-13T17:40:51.016Z,81.79
2022-12-13T17:41:54.909Z,81.48
2022-12-13T17:42:47.214Z,81.69
2022-12-13T17:43:46.195Z,81.69
2022-12-13T17:44:46.220Z,81.69
2022-12-13T17:45:46.255Z,81.83
2022-12-13T17:46:54.665Z,82.14
2022-12-13T17:47:47.155Z,82.35
2022-12-13T17:48:46.172Z,82.14
2022-12-13T17:49:46.156Z,82.35
2022-12-13T17:50:46.122Z,82.56
2022-12-13T17:51:51.234Z,82.46
2022-12-13T17:52:47.105Z,82.67
2022-12-13T17:53:46.085Z,82.56
2022-12-13T17:54:46.090Z,82.46
2022-12-13T17:55:46.064Z,82.67
2022-12-13T17:56:46.057Z,82.88
2022-12-13T17:57:46.057Z,83.09
2022-12-13T17:58:46.054Z,83.20
2022-12-13T17:59:46.054Z,82.78
2022-12-13T18:00:46.015Z,82.56
2022-12-13T18:01:46.043Z,82.56
2022-12-13T18:02:55.078Z,82.78
2022-12-13T18:03:46.989Z,82.78
2022-12-13T18:04:46.034Z,82.46
2022-12-13T18:05:45.954Z,82.46
2022-12-13T18:06:45.949Z,82.35
2022-12-13T18:07:50.703Z,82.35
2022-12-13T18:08:46.954Z,82.25
2022-12-13T18:09:45.919Z,82.14
2022-12-13T18:10:46.112Z,82.25
2022-12-13T18:11:45.894Z,82.25
2022-12-13T18:12:45.885Z,82.46
2022-12-13T18:13:45.914Z,82.56
2022-12-13T18:14:45.869Z,83.09
2022-12-13T18:15:45.893Z,83.09
2022-12-13T18:16:45.881Z,83.20